sensor_id;sensor_type;location;lat;lon;timestamp;temperature;humidity
23633;DHT22;11993;48.748;9.166;2024-01-15T00:01:28;-3274.80;74.40
23633;DHT22;11993;48.748;9.166;2024-01-15T00:03:54;-3274.90;74.40
23633;DHT22;11993;48.748;9.166;2024-01-15T00:06:19;-3274.80;74.50
23633;DHT22;11993;48.748;9.166;2024-01-15T00:08:45;-3275.00;74.40
23633;DHT22;11993;48.748;9.166;2024-01-15T00:11:11;-3275.00;74.30
23633;DHT22;11993;48.748;9.166;2024-01-15T00:13:36;-3275.00;74.10
23633;DHT22;11993;48.748;9.166;2024-01-15T00:16:02;-3275.10;74.10
23633;DHT22;11993;48.748;9.166;2024-01-15T00:18:28;-3275.10;74.30
23633;DHT22;11993;48.748;9.166;2024-01-15T00:20:53;-3275.10;74.20
23633;DHT22;11993;48.748;9.166;2024-01-15T00:23:19;-3275.10;74.10
23633;DHT22;11993;48.748;9.166;2024-01-15T00:25:44;-3275.10;74.00
23633;DHT22;11993;48.748;9.166;2024-01-15T00:28:10;-3275.10;74.10
23633;DHT22;11993;48.748;9.166;2024-01-15T00:30:35;-3275.10;74.30
23633;DHT22;11993;48.748;9.166;2024-01-15T00:33:01;-3275.10;74.40
23633;DHT22;11993;48.748;9.166;2024-01-15T00:35:26;-3275.10;74.40
23633;DHT22;11993;48.748;9.166;2024-01-15T00:37:52;-3275.00;75.00
23633;DHT22;11993;48.748;9.166;2024-01-15T00:40:18;-3275.00;75.10
23633;DHT22;11993;48.748;9.166;2024-01-15T00:42:43;-3275.10;75.00
23633;DHT22;11993;48.748;9.166;2024-01-15T00:45:09;-3274.90;75.80
23633;DHT22;11993;48.748;9.166;2024-01-15T00:47:35;-3274.90;75.70
23633;DHT22;11993;48.748;9.166;2024-01-15T00:50:01;-3274.90;76.10
23633;DHT22;11993;48.748;9.166;2024-01-15T00:52:26;-3274.90;75.90
23633;DHT22;11993;48.748;9.166;2024-01-15T00:54:52;-3274.90;76.10
23633;DHT22;11993;48.748;9.166;2024-01-15T00:57:17;-3274.80;76.50
23633;DHT22;11993;48.748;9.166;2024-01-15T00:59:44;-3275.00;76.30
23633;DHT22;11993;48.748;9.166;2024-01-15T01:02:10;-3275.00;76.40
23633;DHT22;11993;48.748;9.166;2024-01-15T01:04:35;-3275.00;76.50
23633;DHT22;11993;48.748;9.166;2024-01-15T01:07:01;-3275.10;76.40
23633;DHT22;11993;48.748;9.166;2024-01-15T01:09:27;-3275.00;76.60
23633;DHT22;11993;48.748;9.166;2024-01-15T01:11:56;-3275.00;76.60
23633;DHT22;11993;48.748;9.166;2024-01-15T01:14:22;-3275.10;76.40
23633;DHT22;11993;48.748;9.166;2024-01-15T01:16:47;-3275.20;76.30
23633;DHT22;11993;48.748;9.166;2024-01-15T01:19:13;-3275.10;76.50
23633;DHT22;11993;48.748;9.166;2024-01-15T01:21:39;-3275.10;76.80
23633;DHT22;11993;48.748;9.166;2024-01-15T01:24:04;-3275.20;76.70
23633;DHT22;11993;48.748;9.166;2024-01-15T01:26:30;-3275.20;76.70
23633;DHT22;11993;48.748;9.166;2024-01-15T01:28:56;-3275.20;76.60
23633;DHT22;11993;48.748;9.166;2024-01-15T01:31:23;-3275.20;76.50
23633;DHT22;11993;48.748;9.166;2024-01-15T01:33:49;-3275.20;76.60
23633;DHT22;11993;48.748;9.166;2024-01-15T01:36:14;-3275.30;76.60
23633;DHT22;11993;48.748;9.166;2024-01-15T01:38:41;-3275.20;77.00
23633;DHT22;11993;48.748;9.166;2024-01-15T01:41:07;-3275.20;77.00
23633;DHT22;11993;48.748;9.166;2024-01-15T01:43:33;-3275.20;77.10
23633;DHT22;11993;48.748;9.166;2024-01-15T01:46:00;-3275.20;77.20
23633;DHT22;11993;48.748;9.166;2024-01-15T01:48:26;-3275.20;77.10
23633;DHT22;11993;48.748;9.166;2024-01-15T01:50:58;-3275.20;77.20
23633;DHT22;11993;48.748;9.166;2024-01-15T01:53:25;-3275.20;77.20
23633;DHT22;11993;48.748;9.166;2024-01-15T01:55:51;-3275.10;77.40
23633;DHT22;11993;48.748;9.166;2024-01-15T01:58:18;-3275.10;77.70
23633;DHT22;11993;48.748;9.166;2024-01-15T02:00:44;-3275.20;77.70
23633;DHT22;11993;48.748;9.166;2024-01-15T02:03:10;-3275.20;77.70
23633;DHT22;11993;48.748;9.166;2024-01-15T02:05:36;-3275.00;78.40
23633;DHT22;11993;48.748;9.166;2024-01-15T02:08:02;-3275.10;78.20
23633;DHT22;11993;48.748;9.166;2024-01-15T02:10:28;-3275.20;78.00
23633;DHT22;11993;48.748;9.166;2024-01-15T02:12:53;-3275.30;77.70
23633;DHT22;11993;48.748;9.166;2024-01-15T02:15:19;-3275.30;77.50
23633;DHT22;11993;48.748;9.166;2024-01-15T02:17:57;-3275.30;77.40
23633;DHT22;11993;48.748;9.166;2024-01-15T02:20:24;-3275.30;77.30
23633;DHT22;11993;48.748;9.166;2024-01-15T02:22:50;-3275.30;77.50
23633;DHT22;11993;48.748;9.166;2024-01-15T02:25:16;-3275.30;77.30
23633;DHT22;11993;48.748;9.166;2024-01-15T02:27:42;-3275.30;77.40
23633;DHT22;11993;48.748;9.166;2024-01-15T02:30:11;-3275.30;77.40
23633;DHT22;11993;48.748;9.166;2024-01-15T02:32:36;-3275.30;77.40
23633;DHT22;11993;48.748;9.166;2024-01-15T02:35:02;-3275.20;77.40
23633;DHT22;11993;48.748;9.166;2024-01-15T02:37:28;-3275.30;77.40
23633;DHT22;11993;48.748;9.166;2024-01-15T02:39:53;-3275.30;77.70
23633;DHT22;11993;48.748;9.166;2024-01-15T02:42:19;-3275.20;77.50
23633;DHT22;11993;48.748;9.166;2024-01-15T02:44:45;-3275.20;77.60
23633;DHT22;11993;48.748;9.166;2024-01-15T02:47:10;-3275.30;77.40
23633;DHT22;11993;48.748;9.166;2024-01-15T02:49:36;-3275.20;77.20
23633;DHT22;11993;48.748;9.166;2024-01-15T02:52:01;-3275.30;77.30
23633;DHT22;11993;48.748;9.166;2024-01-15T02:54:27;-3275.20;77.50
23633;DHT22;11993;48.748;9.166;2024-01-15T02:56:53;-3275.20;77.60
23633;DHT22;11993;48.748;9.166;2024-01-15T02:59:18;-3275.10;77.90
23633;DHT22;11993;48.748;9.166;2024-01-15T03:01:44;-3275.00;78.00
23633;DHT22;11993;48.748;9.166;2024-01-15T03:04:09;-3275.10;78.30
23633;DHT22;11993;48.748;9.166;2024-01-15T03:06:35;-3275.00;78.50
23633;DHT22;11993;48.748;9.166;2024-01-15T03:09:01;-3275.10;78.40
23633;DHT22;11993;48.748;9.166;2024-01-15T03:11:26;-3275.00;78.40
23633;DHT22;11993;48.748;9.166;2024-01-15T03:13:52;-3275.00;78.50
23633;DHT22;11993;48.748;9.166;2024-01-15T03:16:17;-3275.00;78.40
23633;DHT22;11993;48.748;9.166;2024-01-15T03:18:45;-3275.00;78.50
23633;DHT22;11993;48.748;9.166;2024-01-15T03:21:10;-3275.00;78.70
23633;DHT22;11993;48.748;9.166;2024-01-15T03:23:36;-3274.90;78.90
23633;DHT22;11993;48.748;9.166;2024-01-15T03:26:01;-3275.00;78.80
23633;DHT22;11993;48.748;9.166;2024-01-15T03:28:27;-3274.90;79.10
23633;DHT22;11993;48.748;9.166;2024-01-15T03:30:52;-3274.80;79.20
23633;DHT22;11993;48.748;9.166;2024-01-15T03:33:18;-3274.80;79.10
23633;DHT22;11993;48.748;9.166;2024-01-15T03:35:43;-3274.80;79.20
23633;DHT22;11993;48.748;9.166;2024-01-15T03:38:09;-3274.90;79.30
23633;DHT22;11993;48.748;9.166;2024-01-15T03:40:35;-3274.80;79.30
23633;DHT22;11993;48.748;9.166;2024-01-15T03:43:00;-3274.90;79.40
23633;DHT22;11993;48.748;9.166;2024-01-15T03:45:26;-3275.00;79.30
23633;DHT22;11993;48.748;9.166;2024-01-15T03:47:52;-3275.00;79.30
23633;DHT22;11993;48.748;9.166;2024-01-15T03:50:18;-3275.00;79.20
23633;DHT22;11993;48.748;9.166;2024-01-15T03:52:43;-3275.00;79.10
23633;DHT22;11993;48.748;9.166;2024-01-15T03:55:09;-3275.10;79.00
23633;DHT22;11993;48.748;9.166;2024-01-15T03:57:34;-3275.10;78.90
23633;DHT22;11993;48.748;9.166;2024-01-15T04:00:00;-3275.20;78.70
23633;DHT22;11993;48.748;9.166;2024-01-15T04:02:25;-3275.30;78.30
23633;DHT22;11993;48.748;9.166;2024-01-15T04:04:51;-3275.30;78.10
23633;DHT22;11993;48.748;9.166;2024-01-15T04:07:16;-3275.30;78.10
23633;DHT22;11993;48.748;9.166;2024-01-15T04:09:42;-3275.40;78.00
23633;DHT22;11993;48.748;9.166;2024-01-15T04:12:08;-3275.40;77.80
23633;DHT22;11993;48.748;9.166;2024-01-15T04:14:33;-3275.50;77.40
23633;DHT22;11993;48.748;9.166;2024-01-15T04:16:59;-3275.60;77.20
23633;DHT22;11993;48.748;9.166;2024-01-15T04:19:24;-3275.60;77.10
23633;DHT22;11993;48.748;9.166;2024-01-15T04:21:50;-3275.60;77.00
23633;DHT22;11993;48.748;9.166;2024-01-15T04:24:15;-3275.70;76.80
23633;DHT22;11993;48.748;9.166;2024-01-15T04:26:43;-3275.70;76.90
23633;DHT22;11993;48.748;9.166;2024-01-15T04:29:08;-3275.80;76.90
23633;DHT22;11993;48.748;9.166;2024-01-15T04:31:34;-3275.70;76.70
23633;DHT22;11993;48.748;9.166;2024-01-15T04:33:59;-3275.80;76.70
23633;DHT22;11993;48.748;9.166;2024-01-15T04:36:25;-3275.90;76.50
23633;DHT22;11993;48.748;9.166;2024-01-15T04:38:51;-3275.80;76.60
23633;DHT22;11993;48.748;9.166;2024-01-15T04:41:16;-3275.80;76.70
23633;DHT22;11993;48.748;9.166;2024-01-15T04:43:42;-3275.90;76.70
23633;DHT22;11993;48.748;9.166;2024-01-15T04:46:08;-3275.80;76.60
23633;DHT22;11993;48.748;9.166;2024-01-15T04:48:33;-3275.90;76.70
23633;DHT22;11993;48.748;9.166;2024-01-15T04:50:59;-3275.90;76.60
23633;DHT22;11993;48.748;9.166;2024-01-15T04:53:25;-3275.80;76.90
23633;DHT22;11993;48.748;9.166;2024-01-15T04:55:51;-3275.80;76.90
23633;DHT22;11993;48.748;9.166;2024-01-15T04:58:16;-3275.90;76.80
23633;DHT22;11993;48.748;9.166;2024-01-15T05:00:42;-3275.90;76.90
23633;DHT22;11993;48.748;9.166;2024-01-15T05:03:08;-3275.90;77.00
23633;DHT22;11993;48.748;9.166;2024-01-15T05:05:33;-3275.80;77.20
23633;DHT22;11993;48.748;9.166;2024-01-15T05:07:59;-3275.90;77.20
23633;DHT22;11993;48.748;9.166;2024-01-15T05:10:24;-3275.90;77.30
23633;DHT22;11993;48.748;9.166;2024-01-15T05:12:50;-3275.90;77.60
23633;DHT22;11993;48.748;9.166;2024-01-15T05:15:15;-3275.70;78.10
23633;DHT22;11993;48.748;9.166;2024-01-15T05:17:41;-3275.80;78.30
23633;DHT22;11993;48.748;9.166;2024-01-15T05:20:07;-3275.80;78.40
23633;DHT22;11993;48.748;9.166;2024-01-15T05:22:32;-3275.80;78.40
23633;DHT22;11993;48.748;9.166;2024-01-15T05:24:58;-3275.80;78.60
23633;DHT22;11993;48.748;9.166;2024-01-15T05:27:23;-3275.70;78.60
23633;DHT22;11993;48.748;9.166;2024-01-15T05:29:49;-3275.80;78.80
23633;DHT22;11993;48.748;9.166;2024-01-15T05:32:15;-3275.80;78.80
23633;DHT22;11993;48.748;9.166;2024-01-15T05:34:40;-3275.80;78.70
23633;DHT22;11993;48.748;9.166;2024-01-15T05:37:06;-3275.80;78.60
23633;DHT22;11993;48.748;9.166;2024-01-15T05:39:31;-3275.70;78.50
23633;DHT22;11993;48.748;9.166;2024-01-15T05:41:58;-3275.80;78.70
23633;DHT22;11993;48.748;9.166;2024-01-15T05:44:23;-3275.80;78.70
23633;DHT22;11993;48.748;9.166;2024-01-15T05:46:49;-3275.60;78.80
23633;DHT22;11993;48.748;9.166;2024-01-15T05:49:14;-3275.60;78.90
23633;DHT22;11993;48.748;9.166;2024-01-15T05:51:40;-3275.70;78.70
23633;DHT22;11993;48.748;9.166;2024-01-15T05:54:05;-3275.80;78.60
23633;DHT22;11993;48.748;9.166;2024-01-15T05:56:31;-3275.70;78.50
23633;DHT22;11993;48.748;9.166;2024-01-15T05:58:57;-3275.80;78.20
23633;DHT22;11993;48.748;9.166;2024-01-15T06:01:22;-3275.80;78.30
23633;DHT22;11993;48.748;9.166;2024-01-15T06:03:48;-3275.80;78.50
23633;DHT22;11993;48.748;9.166;2024-01-15T06:06:13;-3275.80;78.20
23633;DHT22;11993;48.748;9.166;2024-01-15T06:08:39;-3275.80;78.20
23633;DHT22;11993;48.748;9.166;2024-01-15T06:11:05;-3275.70;78.40
23633;DHT22;11993;48.748;9.166;2024-01-15T06:13:31;-3275.80;78.30
23633;DHT22;11993;48.748;9.166;2024-01-15T06:15:57;-3275.60;78.50
23633;DHT22;11993;48.748;9.166;2024-01-15T06:18:22;-3275.70;78.40
23633;DHT22;11993;48.748;9.166;2024-01-15T06:20:48;-3275.80;78.20
23633;DHT22;11993;48.748;9.166;2024-01-15T06:23:14;-3275.80;78.10
23633;DHT22;11993;48.748;9.166;2024-01-15T06:25:39;-3275.70;78.30
23633;DHT22;11993;48.748;9.166;2024-01-15T06:28:05;-3275.60;78.60
23633;DHT22;11993;48.748;9.166;2024-01-15T06:30:30;-3275.70;78.50
23633;DHT22;11993;48.748;9.166;2024-01-15T06:32:56;-3275.70;78.40
23633;DHT22;11993;48.748;9.166;2024-01-15T06:35:21;-3275.80;78.50
23633;DHT22;11993;48.748;9.166;2024-01-15T06:37:47;-3275.80;78.40
23633;DHT22;11993;48.748;9.166;2024-01-15T06:40:12;-3275.70;78.50
23633;DHT22;11993;48.748;9.166;2024-01-15T06:42:38;-3275.60;78.50
23633;DHT22;11993;48.748;9.166;2024-01-15T06:45:04;-3275.80;78.50
23633;DHT22;11993;48.748;9.166;2024-01-15T06:47:30;-3275.70;78.50
23633;DHT22;11993;48.748;9.166;2024-01-15T06:49:57;-3275.80;78.50
23633;DHT22;11993;48.748;9.166;2024-01-15T06:52:24;-3275.70;78.30
23633;DHT22;11993;48.748;9.166;2024-01-15T06:54:50;-3275.70;78.30
23633;DHT22;11993;48.748;9.166;2024-01-15T06:57:15;-3275.70;78.30
23633;DHT22;11993;48.748;9.166;2024-01-15T06:59:41;-3275.80;78.30
23633;DHT22;11993;48.748;9.166;2024-01-15T07:02:06;-3275.80;78.00
23633;DHT22;11993;48.748;9.166;2024-01-15T07:04:32;-3275.90;77.40
23633;DHT22;11993;48.748;9.166;2024-01-15T07:06:58;-3275.90;77.30
23633;DHT22;11993;48.748;9.166;2024-01-15T07:09:23;-3276.00;77.10
23633;DHT22;11993;48.748;9.166;2024-01-15T07:11:49;-3275.80;77.30
23633;DHT22;11993;48.748;9.166;2024-01-15T07:14:14;-3275.80;77.40
23633;DHT22;11993;48.748;9.166;2024-01-15T07:16:40;-3275.90;77.10
23633;DHT22;11993;48.748;9.166;2024-01-15T07:19:06;-3275.80;77.20
23633;DHT22;11993;48.748;9.166;2024-01-15T07:21:31;-3275.90;76.70
23633;DHT22;11993;48.748;9.166;2024-01-15T07:23:57;-3276.00;76.70
23633;DHT22;11993;48.748;9.166;2024-01-15T07:26:22;-3275.90;76.80
23633;DHT22;11993;48.748;9.166;2024-01-15T07:28:48;-3275.80;76.90
23633;DHT22;11993;48.748;9.166;2024-01-15T07:31:17;-3275.90;76.70
23633;DHT22;11993;48.748;9.166;2024-01-15T07:33:43;-3275.90;76.60
23633;DHT22;11993;48.748;9.166;2024-01-15T07:36:08;-3275.90;76.70
23633;DHT22;11993;48.748;9.166;2024-01-15T07:38:34;-3275.90;76.60
23633;DHT22;11993;48.748;9.166;2024-01-15T07:40:59;-3275.90;76.60
23633;DHT22;11993;48.748;9.166;2024-01-15T07:43:26;-3276.00;76.00
23633;DHT22;11993;48.748;9.166;2024-01-15T07:45:53;-3276.00;75.70
23633;DHT22;11993;48.748;9.166;2024-01-15T07:48:18;-3276.10;75.50
23633;DHT22;11993;48.748;9.166;2024-01-15T07:50:44;-3276.10;75.20
23633;DHT22;11993;48.748;9.166;2024-01-15T07:53:09;-3276.10;74.70
23633;DHT22;11993;48.748;9.166;2024-01-15T07:55:35;-3276.10;74.40
23633;DHT22;11993;48.748;9.166;2024-01-15T07:58:01;-3276.10;74.20
23633;DHT22;11993;48.748;9.166;2024-01-15T08:00:27;-3276.10;74.20
23633;DHT22;11993;48.748;9.166;2024-01-15T08:02:52;-3276.10;73.80
23633;DHT22;11993;48.748;9.166;2024-01-15T08:05:18;-3276.20;73.80
23633;DHT22;11993;48.748;9.166;2024-01-15T08:07:44;-3276.20;73.70
23633;DHT22;11993;48.748;9.166;2024-01-15T08:10:10;-3276.20;73.50
23633;DHT22;11993;48.748;9.166;2024-01-15T08:12:35;-3276.20;73.70
23633;DHT22;11993;48.748;9.166;2024-01-15T08:15:01;-3276.20;73.50
23633;DHT22;11993;48.748;9.166;2024-01-15T08:17:26;-3276.20;73.60
23633;DHT22;11993;48.748;9.166;2024-01-15T08:19:55;-3276.20;73.40
23633;DHT22;11993;48.748;9.166;2024-01-15T08:22:20;-3276.20;73.00
23633;DHT22;11993;48.748;9.166;2024-01-15T08:24:48;-3276.20;72.80
23633;DHT22;11993;48.748;9.166;2024-01-15T08:27:13;-3276.30;72.60
23633;DHT22;11993;48.748;9.166;2024-01-15T08:29:39;-3276.30;72.50
23633;DHT22;11993;48.748;9.166;2024-01-15T08:32:05;-3276.30;72.50
23633;DHT22;11993;48.748;9.166;2024-01-15T08:34:30;-3276.30;72.20
23633;DHT22;11993;48.748;9.166;2024-01-15T08:36:56;-3276.30;72.40
23633;DHT22;11993;48.748;9.166;2024-01-15T08:39:22;-3276.30;72.80
23633;DHT22;11993;48.748;9.166;2024-01-15T08:41:47;-3276.40;72.50
23633;DHT22;11993;48.748;9.166;2024-01-15T08:44:13;-3276.40;71.90
23633;DHT22;11993;48.748;9.166;2024-01-15T08:46:38;-3276.40;72.00
23633;DHT22;11993;48.748;9.166;2024-01-15T08:49:04;-3276.50;71.60
23633;DHT22;11993;48.748;9.166;2024-01-15T08:51:29;-3276.60;71.30
23633;DHT22;11993;48.748;9.166;2024-01-15T08:53:56;-3276.70;70.90
23633;DHT22;11993;48.748;9.166;2024-01-15T08:56:22;-3276.70;70.50
23633;DHT22;11993;48.748;9.166;2024-01-15T08:58:47;-3276.70;70.10
23633;DHT22;11993;48.748;9.166;2024-01-15T09:01:13;-3276.70;70.40
23633;DHT22;11993;48.748;9.166;2024-01-15T09:03:40;-3276.70;69.80
23633;DHT22;11993;48.748;9.166;2024-01-15T09:06:08;0.00;69.50
23633;DHT22;11993;48.748;9.166;2024-01-15T09:08:34;0.00;69.00
23633;DHT22;11993;48.748;9.166;2024-01-15T09:11:00;0.00;69.00
23633;DHT22;11993;48.748;9.166;2024-01-15T09:13:28;0.00;68.80
23633;DHT22;11993;48.748;9.166;2024-01-15T09:15:53;0.00;68.80
23633;DHT22;11993;48.748;9.166;2024-01-15T09:18:19;0.10;68.90
23633;DHT22;11993;48.748;9.166;2024-01-15T09:20:44;0.10;68.90
23633;DHT22;11993;48.748;9.166;2024-01-15T09:23:10;0.00;68.60
23633;DHT22;11993;48.748;9.166;2024-01-15T09:25:36;0.10;68.80
23633;DHT22;11993;48.748;9.166;2024-01-15T09:28:01;0.10;68.50
23633;DHT22;11993;48.748;9.166;2024-01-15T09:30:27;0.10;68.60
23633;DHT22;11993;48.748;9.166;2024-01-15T09:32:53;0.10;68.50
23633;DHT22;11993;48.748;9.166;2024-01-15T09:35:18;0.10;68.60
23633;DHT22;11993;48.748;9.166;2024-01-15T09:37:44;0.10;69.00
23633;DHT22;11993;48.748;9.166;2024-01-15T09:40:13;0.20;69.00
23633;DHT22;11993;48.748;9.166;2024-01-15T09:42:40;0.20;68.80
23633;DHT22;11993;48.748;9.166;2024-01-15T09:45:07;0.10;69.00
23633;DHT22;11993;48.748;9.166;2024-01-15T09:47:32;0.20;68.60
23633;DHT22;11993;48.748;9.166;2024-01-15T09:49:58;0.20;68.50
23633;DHT22;11993;48.748;9.166;2024-01-15T09:52:24;0.30;68.20
23633;DHT22;11993;48.748;9.166;2024-01-15T09:54:50;0.40;67.90
23633;DHT22;11993;48.748;9.166;2024-01-15T09:57:17;0.50;68.00
23633;DHT22;11993;48.748;9.166;2024-01-15T09:59:43;0.50;67.90
23633;DHT22;11993;48.748;9.166;2024-01-15T10:02:12;0.50;67.90
23633;DHT22;11993;48.748;9.166;2024-01-15T10:04:42;0.50;67.80
23633;DHT22;11993;48.748;9.166;2024-01-15T10:07:09;0.40;67.80
23633;DHT22;11993;48.748;9.166;2024-01-15T10:09:35;0.40;68.10
23633;DHT22;11993;48.748;9.166;2024-01-15T10:12:00;0.40;68.00
23633;DHT22;11993;48.748;9.166;2024-01-15T10:14:26;0.40;67.90
23633;DHT22;11993;48.748;9.166;2024-01-15T10:16:52;0.20;68.50
23633;DHT22;11993;48.748;9.166;2024-01-15T10:19:17;0.40;68.40
23633;DHT22;11993;48.748;9.166;2024-01-15T10:21:43;0.40;68.30
23633;DHT22;11993;48.748;9.166;2024-01-15T10:24:08;0.40;68.30
23633;DHT22;11993;48.748;9.166;2024-01-15T10:26:34;0.30;68.30
23633;DHT22;11993;48.748;9.166;2024-01-15T10:28:59;0.40;68.30
23633;DHT22;11993;48.748;9.166;2024-01-15T10:31:26;0.40;68.20
23633;DHT22;11993;48.748;9.166;2024-01-15T10:33:52;0.40;68.40
23633;DHT22;11993;48.748;9.166;2024-01-15T10:36:18;0.50;68.20
23633;DHT22;11993;48.748;9.166;2024-01-15T10:38:44;0.50;68.30
23633;DHT22;11993;48.748;9.166;2024-01-15T10:41:10;0.60;68.30
23633;DHT22;11993;48.748;9.166;2024-01-15T10:43:36;0.60;68.20
23633;DHT22;11993;48.748;9.166;2024-01-15T10:46:02;0.60;68.40
23633;DHT22;11993;48.748;9.166;2024-01-15T10:48:28;0.50;68.30
23633;DHT22;11993;48.748;9.166;2024-01-15T10:50:59;0.50;68.70
23633;DHT22;11993;48.748;9.166;2024-01-15T10:53:26;0.60;68.80
23633;DHT22;11993;48.748;9.166;2024-01-15T10:55:53;0.50;68.90
23633;DHT22;11993;48.748;9.166;2024-01-15T10:58:20;0.50;68.60
23633;DHT22;11993;48.748;9.166;2024-01-15T11:00:46;0.60;68.70
23633;DHT22;11993;48.748;9.166;2024-01-15T11:03:12;0.60;68.60
23633;DHT22;11993;48.748;9.166;2024-01-15T11:05:47;0.60;69.50
23633;DHT22;11993;48.748;9.166;2024-01-15T11:08:13;0.50;69.70
23633;DHT22;11993;48.748;9.166;2024-01-15T11:10:50;0.50;69.90
23633;DHT22;11993;48.748;9.166;2024-01-15T11:16:02;0.60;70.40
23633;DHT22;11993;48.748;9.166;2024-01-15T11:18:34;0.60;71.30
23633;DHT22;11993;48.748;9.166;2024-01-15T11:23:47;0.60;73.30
23633;DHT22;11993;48.748;9.166;2024-01-15T11:34:10;0.40;73.60
23633;DHT22;11993;48.748;9.166;2024-01-15T11:41:59;0.40;73.60
23633;DHT22;11993;48.748;9.166;2024-01-15T11:44:26;0.50;73.60
23633;DHT22;11993;48.748;9.166;2024-01-15T11:50:00;0.50;75.10
23633;DHT22;11993;48.748;9.166;2024-01-15T11:52:35;0.40;75.70
23633;DHT22;11993;48.748;9.166;2024-01-15T11:55:22;0.30;76.10
23633;DHT22;11993;48.748;9.166;2024-01-15T11:58:23;0.30;76.10
23633;DHT22;11993;48.748;9.166;2024-01-15T12:00:48;0.30;76.20
23633;DHT22;11993;48.748;9.166;2024-01-15T12:03:23;0.30;76.20
23633;DHT22;11993;48.748;9.166;2024-01-15T12:05:49;0.30;76.40
23633;DHT22;11993;48.748;9.166;2024-01-15T12:08:15;0.30;76.70
23633;DHT22;11993;48.748;9.166;2024-01-15T12:10:45;0.30;76.60
23633;DHT22;11993;48.748;9.166;2024-01-15T12:13:15;0.30;76.70
23633;DHT22;11993;48.748;9.166;2024-01-15T12:15:42;0.20;77.60
23633;DHT22;11993;48.748;9.166;2024-01-15T12:18:09;0.10;79.30
23633;DHT22;11993;48.748;9.166;2024-01-15T12:20:35;0.10;80.20
23633;DHT22;11993;48.748;9.166;2024-01-15T12:23:02;0.00;81.40
23633;DHT22;11993;48.748;9.166;2024-01-15T12:25:31;0.00;82.20
23633;DHT22;11993;48.748;9.166;2024-01-15T12:27:58;-3276.70;82.80
23633;DHT22;11993;48.748;9.166;2024-01-15T12:30:28;-3276.70;83.50
23633;DHT22;11993;48.748;9.166;2024-01-15T12:32:55;-3276.60;84.00
23633;DHT22;11993;48.748;9.166;2024-01-15T12:35:20;-3276.50;85.50
23633;DHT22;11993;48.748;9.166;2024-01-15T12:37:47;-3276.50;86.60
23633;DHT22;11993;48.748;9.166;2024-01-15T12:40:13;-3276.50;86.90
23633;DHT22;11993;48.748;9.166;2024-01-15T12:42:43;-3276.60;87.20
23633;DHT22;11993;48.748;9.166;2024-01-15T12:45:10;-3276.50;87.40
23633;DHT22;11993;48.748;9.166;2024-01-15T12:47:37;-3276.50;87.00
23633;DHT22;11993;48.748;9.166;2024-01-15T12:50:06;-3276.50;87.20
23633;DHT22;11993;48.748;9.166;2024-01-15T12:52:32;-3276.60;87.30
23633;DHT22;11993;48.748;9.166;2024-01-15T12:54:58;-3276.50;87.80
23633;DHT22;11993;48.748;9.166;2024-01-15T12:57:23;-3276.50;88.00
23633;DHT22;11993;48.748;9.166;2024-01-15T12:59:49;-3276.50;88.00
23633;DHT22;11993;48.748;9.166;2024-01-15T13:02:16;-3276.50;87.70
23633;DHT22;11993;48.748;9.166;2024-01-15T13:04:42;-3276.50;87.30
23633;DHT22;11993;48.748;9.166;2024-01-15T13:07:08;-3276.60;87.20
23633;DHT22;11993;48.748;9.166;2024-01-15T13:09:34;0.00;87.00
23633;DHT22;11993;48.748;9.166;2024-01-15T13:12:01;0.00;86.90
23633;DHT22;11993;48.748;9.166;2024-01-15T13:14:27;0.00;86.70
23633;DHT22;11993;48.748;9.166;2024-01-15T13:16:53;0.00;87.00
23633;DHT22;11993;48.748;9.166;2024-01-15T13:19:22;-3276.70;87.20
23633;DHT22;11993;48.748;9.166;2024-01-15T13:21:48;0.00;87.30
23633;DHT22;11993;48.748;9.166;2024-01-15T13:24:45;0.20;86.90
23633;DHT22;11993;48.748;9.166;2024-01-15T13:27:31;0.10;86.50
23633;DHT22;11993;48.748;9.166;2024-01-15T13:29:56;0.10;86.60
23633;DHT22;11993;48.748;9.166;2024-01-15T13:32:25;0.20;86.60
23633;DHT22;11993;48.748;9.166;2024-01-15T13:34:51;0.20;86.60
23633;DHT22;11993;48.748;9.166;2024-01-15T13:37:17;0.40;86.60
23633;DHT22;11993;48.748;9.166;2024-01-15T13:39:43;0.30;86.00
23633;DHT22;11993;48.748;9.166;2024-01-15T13:42:09;0.30;86.40
23633;DHT22;11993;48.748;9.166;2024-01-15T13:44:37;0.20;86.40
23633;DHT22;11993;48.748;9.166;2024-01-15T13:47:03;0.40;86.30
23633;DHT22;11993;48.748;9.166;2024-01-15T13:49:28;0.20;86.20
23633;DHT22;11993;48.748;9.166;2024-01-15T13:51:54;0.30;86.20
23633;DHT22;11993;48.748;9.166;2024-01-15T13:54:21;0.50;86.00
23633;DHT22;11993;48.748;9.166;2024-01-15T13:56:46;0.50;86.00
23633;DHT22;11993;48.748;9.166;2024-01-15T13:59:12;0.60;85.80
23633;DHT22;11993;48.748;9.166;2024-01-15T14:01:38;0.40;86.10
23633;DHT22;11993;48.748;9.166;2024-01-15T14:04:04;0.50;86.20
23633;DHT22;11993;48.748;9.166;2024-01-15T14:06:29;0.40;86.50
23633;DHT22;11993;48.748;9.166;2024-01-15T14:08:56;0.50;86.00
23633;DHT22;11993;48.748;9.166;2024-01-15T14:11:21;0.60;86.00
23633;DHT22;11993;48.748;9.166;2024-01-15T14:13:48;0.70;86.10
23633;DHT22;11993;48.748;9.166;2024-01-15T14:16:13;0.70;86.20
23633;DHT22;11993;48.748;9.166;2024-01-15T14:18:39;0.60;86.00
23633;DHT22;11993;48.748;9.166;2024-01-15T14:21:04;0.70;86.00
23633;DHT22;11993;48.748;9.166;2024-01-15T14:23:30;0.70;85.70
23633;DHT22;11993;48.748;9.166;2024-01-15T14:25:56;0.70;85.80
23633;DHT22;11993;48.748;9.166;2024-01-15T14:28:22;0.70;85.70
23633;DHT22;11993;48.748;9.166;2024-01-15T14:30:48;0.60;85.90
23633;DHT22;11993;48.748;9.166;2024-01-15T14:33:14;0.50;86.10
23633;DHT22;11993;48.748;9.166;2024-01-15T14:35:39;0.40;86.10
23633;DHT22;11993;48.748;9.166;2024-01-15T14:38:05;0.40;85.60
23633;DHT22;11993;48.748;9.166;2024-01-15T14:40:31;0.30;83.60
23633;DHT22;11993;48.748;9.166;2024-01-15T14:42:56;0.30;83.80
23633;DHT22;11993;48.748;9.166;2024-01-15T14:45:22;0.40;84.10
23633;DHT22;11993;48.748;9.166;2024-01-15T14:47:48;0.20;84.30
23633;DHT22;11993;48.748;9.166;2024-01-15T14:50:14;0.10;84.40
23633;DHT22;11993;48.748;9.166;2024-01-15T14:52:39;0.10;84.30
23633;DHT22;11993;48.748;9.166;2024-01-15T14:55:07;0.00;83.90
23633;DHT22;11993;48.748;9.166;2024-01-15T14:57:34;0.00;84.40
23633;DHT22;11993;48.748;9.166;2024-01-15T14:59:59;0.00;84.50
23633;DHT22;11993;48.748;9.166;2024-01-15T15:02:25;0.00;84.60
23633;DHT22;11993;48.748;9.166;2024-01-15T15:04:54;0.00;84.40
23633;DHT22;11993;48.748;9.166;2024-01-15T15:07:21;0.00;84.60
23633;DHT22;11993;48.748;9.166;2024-01-15T15:09:47;0.00;84.60
23633;DHT22;11993;48.748;9.166;2024-01-15T15:12:16;0.00;84.70
23633;DHT22;11993;48.748;9.166;2024-01-15T15:14:42;0.00;84.50
23633;DHT22;11993;48.748;9.166;2024-01-15T15:17:08;0.00;84.60
23633;DHT22;11993;48.748;9.166;2024-01-15T15:19:35;0.00;84.40
23633;DHT22;11993;48.748;9.166;2024-01-15T15:22:01;-3276.70;84.80
23633;DHT22;11993;48.748;9.166;2024-01-15T15:24:26;0.00;84.40